sensor_id;sensor_type;location;lat;lon;timestamp;pressure;altitude;pressure_sealevel;temperature;humidity
62634;BME280;48704;50.534;6.442;2023-02-28T00:01:31;96474.53;;;-3.31;100.00
62634;BME280;48704;50.534;6.442;2023-02-28T00:03:56;96482.28;;;-3.37;100.00
62634;BME280;48704;50.534;6.442;2023-02-28T00:06:22;96473.38;;;-3.57;100.00
62634;BME280;48704;50.534;6.442;2023-02-28T00:08:47;96479.69;;;-3.53;100.00
62634;BME280;48704;50.534;6.442;2023-02-28T00:11:14;96474.78;;;-3.66;100.00
62634;BME280;48704;50.534;6.442;2023-02-28T00:13:44;96477.84;;;-3.68;100.00
62634;BME280;48704;50.534;6.442;2023-02-28T00:16:14;96477.75;;;-3.75;100.00
62634;BME280;48704;50.534;6.442;2023-02-28T00:18:40;96466.03;;;-3.79;100.00
62634;BME280;48704;50.534;6.442;2023-02-28T00:21:06;96474.34;;;-3.46;100.00
62634;BME280;48704;50.534;6.442;2023-02-28T00:23:31;96470.59;;;-3.38;100.00
62634;BME280;48704;50.534;6.442;2023-02-28T00:25:57;96467.94;;;-3.57;100.00
62634;BME280;48704;50.534;6.442;2023-02-28T00:28:22;96477.03;;;-3.72;100.00
62634;BME280;48704;50.534;6.442;2023-02-28T00:30:48;96470.22;;;-3.59;100.00
62634;BME280;48704;50.534;6.442;2023-02-28T00:33:14;96469.16;;;-3.77;100.00
62634;BME280;48704;50.534;6.442;2023-02-28T00:35:39;96467.81;;;-3.64;100.00
62634;BME280;48704;50.534;6.442;2023-02-28T00:38:05;96478.41;;;-3.82;100.00
62634;BME280;48704;50.534;6.442;2023-02-28T00:40:30;96478.47;;;-3.78;100.00
62634;BME280;48704;50.534;6.442;2023-02-28T00:42:56;96480.22;;;-3.66;100.00
62634;BME280;48704;50.534;6.442;2023-02-28T00:45:21;96478.41;;;-3.82;100.00
62634;BME280;48704;50.534;6.442;2023-02-28T00:47:46;96471.16;;;-3.74;100.00
62634;BME280;48704;50.534;6.442;2023-02-28T00:50:16;96474.72;;;-3.70;100.00
62634;BME280;48704;50.534;6.442;2023-02-28T00:52:41;96480.22;;;-3.89;100.00
62634;BME280;48704;50.534;6.442;2023-02-28T00:55:07;96476.78;;;-3.86;100.00
62634;BME280;48704;50.534;6.442;2023-02-28T00:57:32;96485.50;;;-3.77;100.00
62634;BME280;48704;50.534;6.442;2023-02-28T00:59:57;96479.44;;;-3.67;100.00
62634;BME280;48704;50.534;6.442;2023-02-28T01:02:23;96485.25;;;-3.68;100.00
62634;BME280;48704;50.534;6.442;2023-02-28T01:04:48;96488.41;;;-3.89;100.00
62634;BME280;48704;50.534;6.442;2023-02-28T01:07:14;96482.22;;;-3.86;100.00
62634;BME280;48704;50.534;6.442;2023-02-28T01:09:40;96486.81;;;-3.90;100.00
62634;BME280;48704;50.534;6.442;2023-02-28T01:12:07;96484.53;;;-3.88;100.00
62634;BME280;48704;50.534;6.442;2023-02-28T01:14:32;96491.00;;;-3.96;100.00
62634;BME280;48704;50.534;6.442;2023-02-28T01:16:57;96488.28;;;-3.74;100.00
62634;BME280;48704;50.534;6.442;2023-02-28T01:19:23;96488.03;;;-3.88;100.00
62634;BME280;48704;50.534;6.442;2023-02-28T01:21:48;96487.66;;;-3.86;100.00
62634;BME280;48704;50.534;6.442;2023-02-28T01:24:13;96488.69;;;-3.94;100.00
62634;BME280;48704;50.534;6.442;2023-02-28T01:26:39;96485.97;;;-3.94;100.00
62634;BME280;48704;50.534;6.442;2023-02-28T01:29:04;96493.25;;;-3.79;100.00
62634;BME280;48704;50.534;6.442;2023-02-28T01:31:29;96485.25;;;-3.91;100.00
62634;BME280;48704;50.534;6.442;2023-02-28T01:33:54;96480.53;;;-3.94;100.00
62634;BME280;48704;50.534;6.442;2023-02-28T01:36:22;96482.63;;;-4.07;100.00
62634;BME280;48704;50.534;6.442;2023-02-28T01:38:48;96480.13;;;-3.74;100.00
62634;BME280;48704;50.534;6.442;2023-02-28T01:46:12;96475.72;;;-4.01;100.00
62634;BME280;48704;50.534;6.442;2023-02-28T01:48:44;96477.84;;;-4.14;100.00
62634;BME280;48704;50.534;6.442;2023-02-28T01:51:20;96473.50;;;-3.95;100.00
62634;BME280;48704;50.534;6.442;2023-02-28T01:53:56;96474.00;;;-4.13;100.00
62634;BME280;48704;50.534;6.442;2023-02-28T01:56:27;96467.97;;;-4.22;100.00
62634;BME280;48704;50.534;6.442;2023-02-28T01:58:54;96464.41;;;-4.03;100.00
62634;BME280;48704;50.534;6.442;2023-02-28T02:01:21;96468.53;;;-4.13;100.00
62634;BME280;48704;50.534;6.442;2023-02-28T02:03:49;96460.25;;;-4.39;100.00
62634;BME280;48704;50.534;6.442;2023-02-28T02:06:21;96462.44;;;-4.48;100.00
62634;BME280;48704;50.534;6.442;2023-02-28T02:08:47;96461.66;;;-4.49;100.00
62634;BME280;48704;50.534;6.442;2023-02-28T02:11:13;96458.44;;;-4.54;100.00
62634;BME280;48704;50.534;6.442;2023-02-28T02:22:26;96444.00;;;-4.35;100.00
62634;BME280;48704;50.534;6.442;2023-02-28T02:25:19;96445.78;;;-4.24;100.00
62634;BME280;48704;50.534;6.442;2023-02-28T02:30:41;96434.63;;;-4.38;100.00
62634;BME280;48704;50.534;6.442;2023-02-28T02:35:45;96439.34;;;-4.35;100.00
62634;BME280;48704;50.534;6.442;2023-02-28T02:43:46;96447.09;;;-4.37;100.00
62634;BME280;48704;50.534;6.442;2023-02-28T02:46:15;96451.25;;;-4.43;100.00
62634;BME280;48704;50.534;6.442;2023-02-28T02:48:42;96444.13;;;-4.71;100.00
62634;BME280;48704;50.534;6.442;2023-02-28T02:51:14;96448.84;;;-4.67;100.00
62634;BME280;48704;50.534;6.442;2023-02-28T02:53:44;96447.56;;;-4.54;100.00
62634;BME280;48704;50.534;6.442;2023-02-28T02:56:15;96449.25;;;-4.65;100.00
62634;BME280;48704;50.534;6.442;2023-02-28T02:58:43;96441.41;;;-4.51;100.00
62634;BME280;48704;50.534;6.442;2023-02-28T03:01:18;96453.25;;;-4.40;100.00
62634;BME280;48704;50.534;6.442;2023-02-28T03:03:55;96453.31;;;-4.37;100.00
62634;BME280;48704;50.534;6.442;2023-02-28T03:06:21;96448.94;;;-4.41;100.00
62634;BME280;48704;50.534;6.442;2023-02-28T03:08:47;96449.56;;;-4.51;100.00
62634;BME280;48704;50.534;6.442;2023-02-28T03:11:13;96451.66;;;-4.41;100.00
62634;BME280;48704;50.534;6.442;2023-02-28T03:13:52;96450.09;;;-4.42;100.00
62634;BME280;48704;50.534;6.442;2023-02-28T03:21:43;96452.44;;;-4.21;100.00
62634;BME280;48704;50.534;6.442;2023-02-28T03:24:18;96443.81;;;-4.46;100.00
62634;BME280;48704;50.534;6.442;2023-02-28T03:26:55;96446.38;;;-4.34;100.00
62634;BME280;48704;50.534;6.442;2023-02-28T03:29:42;96433.19;;;-4.32;100.00
62634;BME280;48704;50.534;6.442;2023-02-28T03:32:19;96436.81;;;-4.47;100.00
62634;BME280;48704;50.534;6.442;2023-02-28T03:34:59;96440.34;;;-4.43;100.00
62634;BME280;48704;50.534;6.442;2023-02-28T03:37:26;96445.03;;;-4.63;100.00
62634;BME280;48704;50.534;6.442;2023-02-28T03:40:28;96443.06;;;-4.85;100.00
62634;BME280;48704;50.534;6.442;2023-02-28T03:43:00;96434.81;;;-4.89;100.00
62634;BME280;48704;50.534;6.442;2023-02-28T03:45:33;96426.78;;;-4.82;100.00
62634;BME280;48704;50.534;6.442;2023-02-28T03:48:11;96436.38;;;-4.68;100.00
62634;BME280;48704;50.534;6.442;2023-02-28T03:50:44;96441.97;;;-4.61;100.00
62634;BME280;48704;50.534;6.442;2023-02-28T03:53:16;96430.22;;;-4.65;100.00
62634;BME280;48704;50.534;6.442;2023-02-28T03:55:46;96431.66;;;-4.72;100.00
62634;BME280;48704;50.534;6.442;2023-02-28T03:58:42;96445.75;;;-4.66;100.00
62634;BME280;48704;50.534;6.442;2023-02-28T04:01:13;96445.41;;;-4.64;100.00
62634;BME280;48704;50.534;6.442;2023-02-28T04:03:41;96433.78;;;-4.81;100.00
62634;BME280;48704;50.534;6.442;2023-02-28T04:06:15;96433.31;;;-4.67;100.00
62634;BME280;48704;50.534;6.442;2023-02-28T04:08:41;96435.53;;;-4.53;100.00
62634;BME280;48704;50.534;6.442;2023-02-28T04:11:12;96435.03;;;-4.59;100.00
62634;BME280;48704;50.534;6.442;2023-02-28T04:13:40;96442.59;;;-4.68;100.00
62634;BME280;48704;50.534;6.442;2023-02-28T04:16:09;96444.13;;;-4.71;100.00
62634;BME280;48704;50.534;6.442;2023-02-28T04:18:38;96437.66;;;-4.62;100.00
62634;BME280;48704;50.534;6.442;2023-02-28T04:21:05;96433.94;;;-4.74;100.00
62634;BME280;48704;50.534;6.442;2023-02-28T04:23:30;96442.19;;;-4.70;100.00
62634;BME280;48704;50.534;6.442;2023-02-28T04:25:56;96441.19;;;-4.62;100.00
62634;BME280;48704;50.534;6.442;2023-02-28T04:28:21;96433.78;;;-4.81;100.00
62634;BME280;48704;50.534;6.442;2023-02-28T04:30:47;96436.25;;;-4.76;100.00
62634;BME280;48704;50.534;6.442;2023-02-28T04:33:12;96435.81;;;-4.78;100.00
62634;BME280;48704;50.534;6.442;2023-02-28T04:35:37;96431.94;;;-4.96;100.00
62634;BME280;48704;50.534;6.442;2023-02-28T04:38:03;96430.25;;;-4.85;100.00
62634;BME280;48704;50.534;6.442;2023-02-28T04:40:28;96433.59;;;-4.53;100.00
62634;BME280;48704;50.534;6.442;2023-02-28T04:42:53;96427.66;;;-4.78;100.00
62634;BME280;48704;50.534;6.442;2023-02-28T04:45:19;96435.44;;;-4.76;100.00
62634;BME280;48704;50.534;6.442;2023-02-28T04:47:44;96434.38;;;-4.91;100.00
62634;BME280;48704;50.534;6.442;2023-02-28T04:50:10;96431.09;;;-5.00;100.00
62634;BME280;48704;50.534;6.442;2023-02-28T04:52:35;96428.81;;;-4.98;100.00
62634;BME280;48704;50.534;6.442;2023-02-28T04:55:00;96432.81;;;-4.92;100.00
62634;BME280;48704;50.534;6.442;2023-02-28T04:57:26;96433.09;;;-4.97;100.00
62634;BME280;48704;50.534;6.442;2023-02-28T04:59:52;96439.19;;;-5.19;100.00
62634;BME280;48704;50.534;6.442;2023-02-28T05:02:17;96440.63;;;-4.90;100.00
62634;BME280;48704;50.534;6.442;2023-02-28T05:04:42;96440.53;;;-4.94;100.00
62634;BME280;48704;50.534;6.442;2023-02-28T05:07:07;96445.81;;;-5.01;100.00
62634;BME280;48704;50.534;6.442;2023-02-28T05:09:33;96451.09;;;-5.08;100.00
62634;BME280;48704;50.534;6.442;2023-02-28T05:11:58;96449.38;;;-5.16;100.00
62634;BME280;48704;50.534;6.442;2023-02-28T05:14:23;96457.47;;;-5.00;100.00
62634;BME280;48704;50.534;6.442;2023-02-28T05:16:49;96451.97;;;-5.04;100.00
62634;BME280;48704;50.534;6.442;2023-02-28T05:19:14;96453.84;;;-4.89;100.00
62634;BME280;48704;50.534;6.442;2023-02-28T05:21:41;96450.53;;;-4.98;100.00
62634;BME280;48704;50.534;6.442;2023-02-28T05:24:11;96450.38;;;-5.05;100.00
62634;BME280;48704;50.534;6.442;2023-02-28T05:26:38;96452.25;;;-5.09;100.00
62634;BME280;48704;50.534;6.442;2023-02-28T05:29:04;96455.59;;;-5.16;100.00
62634;BME280;48704;50.534;6.442;2023-02-28T05:31:30;96450.31;;;-5.09;100.00
62634;BME280;48704;50.534;6.442;2023-02-28T05:33:55;96455.22;;;-5.14;100.00
62634;BME280;48704;50.534;6.442;2023-02-28T05:36:20;96458.34;;;-5.31;100.00
62634;BME280;48704;50.534;6.442;2023-02-28T05:38:47;96455.03;;;-5.41;100.00
62634;BME280;48704;50.534;6.442;2023-02-28T05:41:13;96456.94;;;-5.25;100.00
62634;BME280;48704;50.534;6.442;2023-02-28T05:43:39;96456.94;;;-5.25;100.00
62634;BME280;48704;50.534;6.442;2023-02-28T05:46:05;96453.13;;;-5.56;100.00
62634;BME280;48704;50.534;6.442;2023-02-28T05:48:32;96454.84;;;-5.32;100.00
62634;BME280;48704;50.534;6.442;2023-02-28T05:50:58;96448.66;;;-5.13;100.00
62634;BME280;48704;50.534;6.442;2023-02-28T05:53:23;96449.94;;;-5.26;100.00
62634;BME280;48704;50.534;6.442;2023-02-28T05:55:49;96451.38;;;-5.13;100.00
62634;BME280;48704;50.534;6.442;2023-02-28T05:58:14;96435.06;;;-5.32;100.00
62634;BME280;48704;50.534;6.442;2023-02-28T06:00:39;96441.28;;;-5.32;100.00
62634;BME280;48704;50.534;6.442;2023-02-28T06:03:04;96445.22;;;-5.29;100.00
62634;BME280;48704;50.534;6.442;2023-02-28T06:05:30;96442.44;;;-5.14;100.00
62634;BME280;48704;50.534;6.442;2023-02-28T06:07:55;96442.69;;;-5.38;100.00
62634;BME280;48704;50.534;6.442;2023-02-28T06:10:20;96446.38;;;-5.46;100.00
62634;BME280;48704;50.534;6.442;2023-02-28T06:12:46;96445.28;;;-5.61;100.00
62634;BME280;48704;50.534;6.442;2023-02-28T06:15:16;96442.81;;;-5.66;100.00
62634;BME280;48704;50.534;6.442;2023-02-28T06:17:42;96453.63;;;-5.34;100.00
62634;BME280;48704;50.534;6.442;2023-02-28T06:20:08;96455.47;;;-5.39;100.00
62634;BME280;48704;50.534;6.442;2023-02-28T06:22:35;96452.94;;;-5.31;100.00
62634;BME280;48704;50.534;6.442;2023-02-28T06:25:01;96455.47;;;-5.39;100.00
62634;BME280;48704;50.534;6.442;2023-02-28T06:27:26;96451.88;;;-5.27;100.00
62634;BME280;48704;50.534;6.442;2023-02-28T06:29:54;96463.53;;;-5.42;100.00
62634;BME280;48704;50.534;6.442;2023-02-28T06:32:21;96453.31;;;-5.49;100.00
62634;BME280;48704;50.534;6.442;2023-02-28T06:34:46;96463.91;;;-5.44;100.00
62634;BME280;48704;50.534;6.442;2023-02-28T06:37:11;96464.34;;;-5.42;100.00
62634;BME280;48704;50.534;6.442;2023-02-28T06:39:37;96458.31;;;-5.66;100.00
62634;BME280;48704;50.534;6.442;2023-02-28T06:42:02;96472.59;;;-5.69;100.00
62634;BME280;48704;50.534;6.442;2023-02-28T06:44:27;96470.38;;;-5.48;100.00
62634;BME280;48704;50.534;6.442;2023-02-28T06:47:01;96475.72;;;-5.52;100.00
62634;BME280;48704;50.534;6.442;2023-02-28T06:49:29;96478.25;;;-5.43;100.00
62634;BME280;48704;50.534;6.442;2023-02-28T06:51:54;96485.78;;;-5.36;100.00
62634;BME280;48704;50.534;6.442;2023-02-28T06:54:20;96484.25;;;-5.18;100.00
62634;BME280;48704;50.534;6.442;2023-02-28T06:56:45;96489.53;;;-5.25;100.00
62634;BME280;48704;50.534;6.442;2023-02-28T06:59:12;96492.72;;;-5.04;100.00
62634;BME280;48704;50.534;6.442;2023-02-28T07:01:37;96501.03;;;-4.97;100.00
62634;BME280;48704;50.534;6.442;2023-02-28T07:04:04;96502.28;;;-4.94;100.00
62634;BME280;48704;50.534;6.442;2023-02-28T07:06:30;96500.53;;;-5.02;100.00
62634;BME280;48704;50.534;6.442;2023-02-28T07:08:56;96510.59;;;-4.87;100.00
62634;BME280;48704;50.534;6.442;2023-02-28T07:11:23;96504.91;;;-4.98;100.00
62634;BME280;48704;50.534;6.442;2023-02-28T07:13:51;96504.47;;;-4.81;100.00
62634;BME280;48704;50.534;6.442;2023-02-28T07:16:16;96507.78;;;-4.72;100.00
62634;BME280;48704;50.534;6.442;2023-02-28T07:18:42;96507.50;;;-4.86;100.00
62634;BME280;48704;50.534;6.442;2023-02-28T07:21:09;96520.25;;;-4.71;100.00
62634;BME280;48704;50.534;6.442;2023-02-28T07:23:35;96509.69;;;-4.56;100.00
62634;BME280;48704;50.534;6.442;2023-02-28T07:26:01;96520.41;;;-4.63;100.00
62634;BME280;48704;50.534;6.442;2023-02-28T07:28:26;96517.53;;;-4.71;100.00
62634;BME280;48704;50.534;6.442;2023-02-28T07:30:51;96515.38;;;-4.42;100.00
62634;BME280;48704;50.534;6.442;2023-02-28T07:33:17;96521.25;;;-4.21;100.00
62634;BME280;48704;50.534;6.442;2023-02-28T07:35:42;96514.59;;;-4.23;100.00
62634;BME280;48704;50.534;6.442;2023-02-28T07:38:07;96513.25;;;-4.52;100.00
62634;BME280;48704;50.534;6.442;2023-02-28T07:40:34;96516.25;;;-4.38;100.00
62634;BME280;48704;50.534;6.442;2023-02-28T07:43:00;96522.84;;;-4.20;100.00
62634;BME280;48704;50.534;6.442;2023-02-28T07:45:26;96509.72;;;-4.14;100.00
62634;BME280;48704;50.534;6.442;2023-02-28T07:47:54;96515.09;;;-4.18;100.00
62634;BME280;48704;50.534;6.442;2023-02-28T07:50:19;96516.38;;;-4.31;100.00
62634;BME280;48704;50.534;6.442;2023-02-28T07:52:45;96512.81;;;-4.16;100.00
62634;BME280;48704;50.534;6.442;2023-02-28T07:55:10;96508.09;;;-4.19;100.00
62634;BME280;48704;50.534;6.442;2023-02-28T07:57:36;96511.22;;;-4.17;100.00
62634;BME280;48704;50.534;6.442;2023-02-28T08:00:06;96513.31;;;-4.10;100.00
62634;BME280;48704;50.534;6.442;2023-02-28T08:02:32;96513.50;;;-3.99;100.00
62634;BME280;48704;50.534;6.442;2023-02-28T08:04:57;96521.19;;;-3.82;100.00
62634;BME280;48704;50.534;6.442;2023-02-28T08:07:22;96512.06;;;-3.71;100.00
62634;BME280;48704;50.534;6.442;2023-02-28T08:09:47;96515.19;;;-3.68;100.00
62634;BME280;48704;50.534;6.442;2023-02-28T08:12:13;96510.53;;;-3.68;100.00
62634;BME280;48704;50.534;6.442;2023-02-28T08:14:38;96510.44;;;-3.75;100.00
62634;BME280;48704;50.534;6.442;2023-02-28T08:17:04;96508.97;;;-3.69;100.00
62634;BME280;48704;50.534;6.442;2023-02-28T08:19:30;96514.41;;;-3.69;100.00
62634;BME280;48704;50.534;6.442;2023-02-28T08:21:56;96514.41;;;-3.69;100.00
62634;BME280;48704;50.534;6.442;2023-02-28T08:24:21;96508.25;;;-3.66;100.00
62634;BME280;48704;50.534;6.442;2023-02-28T08:26:47;96510.06;;;-3.51;100.00
62634;BME280;48704;50.534;6.442;2023-02-28T08:29:12;96516.38;;;-3.47;100.00
62634;BME280;48704;50.534;6.442;2023-02-28T08:31:38;96510.50;;;-3.49;100.00
62634;BME280;48704;50.534;6.442;2023-02-28T08:34:14;96518.31;;;-3.47;100.00
62634;BME280;48704;50.534;6.442;2023-02-28T08:36:40;96515.28;;;-3.16;100.00
62634;BME280;48704;50.534;6.442;2023-02-28T08:39:07;96524.16;;;-2.96;100.00
62634;BME280;48704;50.534;6.442;2023-02-28T08:41:32;96514.38;;;-2.97;100.00
62634;BME280;48704;50.534;6.442;2023-02-28T08:43:58;96510.91;;;-2.97;100.00
62634;BME280;48704;50.534;6.442;2023-02-28T08:46:24;96516.50;;;-2.87;100.00
62634;BME280;48704;50.534;6.442;2023-02-28T08:48:54;96519.94;;;-2.90;100.00
62634;BME280;48704;50.534;6.442;2023-02-28T08:51:20;96518.16;;;-2.79;100.00
62634;BME280;48704;50.534;6.442;2023-02-28T08:54:00;96520.38;;;-2.88;100.00
62634;BME280;48704;50.534;6.442;2023-02-28T08:56:27;96517.63;;;-2.61;100.00
62634;BME280;48704;50.534;6.442;2023-02-28T08:58:55;96529.47;;;-2.50;100.00
62634;BME280;48704;50.534;6.442;2023-02-28T09:01:26;96524.25;;;-2.89;100.00
62634;BME280;48704;50.534;6.442;2023-02-28T09:03:53;96526.63;;;-2.57;100.00
62634;BME280;48704;50.534;6.442;2023-02-28T09:06:20;96520.84;;;-2.52;100.00
62634;BME280;48704;50.534;6.442;2023-02-28T09:08:46;96530.47;;;-2.32;100.00
62634;BME280;48704;50.534;6.442;2023-02-28T09:11:12;96525.97;;;-2.17;100.00
62634;BME280;48704;50.534;6.442;2023-02-28T09:13:38;96529.91;;;-2.15;100.00
62634;BME280;48704;50.534;6.442;2023-02-28T09:16:06;96530.25;;;-1.83;100.00
62634;BME280;48704;50.534;6.442;2023-02-28T09:18:34;96527.97;;;-1.77;100.00
62634;BME280;48704;50.534;6.442;2023-02-28T09:21:02;96524.41;;;-1.41;100.00
62634;BME280;48704;50.534;6.442;2023-02-28T09:23:28;96525.25;;;-1.77;97.23
62634;BME280;48704;50.534;6.442;2023-02-28T09:25:54;96524.31;;;-1.55;100.00
62634;BME280;48704;50.534;6.442;2023-02-28T09:28:20;96530.44;;;-1.65;98.81
62634;BME280;48704;50.534;6.442;2023-02-28T09:30:49;96522.31;;;-1.58;96.66
62634;BME280;48704;50.534;6.442;2023-02-28T09:33:16;96520.56;;;-1.36;96.93
62634;BME280;48704;50.534;6.442;2023-02-28T09:35:42;96522.69;;;-1.15;94.92
62634;BME280;48704;50.534;6.442;2023-02-28T09:38:08;96529.44;;;-0.98;91.41
62634;BME280;48704;50.534;6.442;2023-02-28T09:40:37;96527.97;;;-0.13;90.47
62634;BME280;48704;50.534;6.442;2023-02-28T09:43:04;96522.94;;;0.04;86.67
62634;BME280;48704;50.534;6.442;2023-02-28T09:45:40;96519.13;;;0.37;83.13
62634;BME280;48704;50.534;6.442;2023-02-28T09:48:18;96519.94;;;0.51;81.19
62634;BME280;48704;50.534;6.442;2023-02-28T09:50:50;96513.66;;;0.58;80.43
62634;BME280;48704;50.534;6.442;2023-02-28T09:53:29;96519.97;;;1.08;74.82
62634;BME280;48704;50.534;6.442;2023-02-28T09:56:06;96519.94;;;0.80;76.31
62634;BME280;48704;50.534;6.442;2023-02-28T09:58:44;96520.69;;;1.48;75.32
62634;BME280;48704;50.534;6.442;2023-02-28T10:01:43;96520.50;;;2.01;70.23
62634;BME280;48704;50.534;6.442;2023-02-28T10:07:25;96522.16;;;1.77;69.05
62634;BME280;48704;50.534;6.442;2023-02-28T10:09:58;96525.03;;;0.56;72.24
62634;BME280;48704;50.534;6.442;2023-02-28T10:12:26;96523.78;;;0.22;75.41
62634;BME280;48704;50.534;6.442;2023-02-28T10:14:53;96519.13;;;0.33;74.47
62634;BME280;48704;50.534;6.442;2023-02-28T10:17:23;96526.19;;;0.45;73.25
62634;BME280;48704;50.534;6.442;2023-02-28T10:20:07;96529.34;;;1.14;69.02
62634;BME280;48704;50.534;6.442;2023-02-28T10:22:44;96524.41;;;2.04;68.89
62634;BME280;48704;50.534;6.442;2023-02-28T10:25:21;96525.19;;;2.08;68.27
62634;BME280;48704;50.534;6.442;2023-02-28T10:27:47;96512.69;;;1.92;67.52
62634;BME280;48704;50.534;6.442;2023-02-28T10:30:13;96516.00;;;1.38;68.17
62634;BME280;48704;50.534;6.442;2023-02-28T10:32:48;96514.81;;;2.40;66.29
62634;BME280;48704;50.534;6.442;2023-02-28T10:35:17;96510.44;;;2.98;66.58
62634;BME280;48704;50.534;6.442;2023-02-28T10:37:46;96509.66;;;3.80;63.98
62634;BME280;48704;50.534;6.442;2023-02-28T10:42:55;96511.88;;;3.17;59.17
62634;BME280;48704;50.534;6.442;2023-02-28T10:45:20;96514.03;;;3.77;58.26
62634;BME280;48704;50.534;6.442;2023-02-28T10:47:52;96507.94;;;3.93;56.35
62634;BME280;48704;50.534;6.442;2023-02-28T10:50:42;96507.34;;;3.75;56.57
62634;BME280;48704;50.534;6.442;2023-02-28T10:56:20;96507.75;;;3.73;56.27
62634;BME280;48704;50.534;6.442;2023-02-28T10:58:50;96504.28;;;2.83;57.45
62634;BME280;48704;50.534;6.442;2023-02-28T11:01:40;96501.44;;;2.39;58.33
62634;BME280;48704;50.534;6.442;2023-02-28T11:06:56;96494.13;;;2.18;60.26
62634;BME280;48704;50.534;6.442;2023-02-28T11:09:27;96500.06;;;2.02;62.03
62634;BME280;48704;50.534;6.442;2023-02-28T11:11:54;96499.00;;;1.78;61.20
62634;BME280;48704;50.534;6.442;2023-02-28T11:14:24;96493.00;;;2.01;61.37
62634;BME280;48704;50.534;6.442;2023-02-28T11:16:50;96495.38;;;2.65;60.65
62634;BME280;48704;50.534;6.442;2023-02-28T11:19:20;96500.38;;;2.81;57.85
62634;BME280;48704;50.534;6.442;2023-02-28T11:22:02;96496.94;;;2.04;60.20
62634;BME280;48704;50.534;6.442;2023-02-28T11:24:31;96490.84;;;1.50;61.13
62634;BME280;48704;50.534;6.442;2023-02-28T11:26:58;96497.56;;;1.38;61.75
62634;BME280;48704;50.534;6.442;2023-02-28T11:29:26;96495.19;;;1.44;61.61
62634;BME280;48704;50.534;6.442;2023-02-28T11:34:34;96489.59;;;3.42;58.98
62634;BME280;48704;50.534;6.442;2023-02-28T11:37:01;96487.66;;;3.76;57.12
62634;BME280;48704;50.534;6.442;2023-02-28T11:39:31;96488.13;;;3.33;56.51
62634;BME280;48704;50.534;6.442;2023-02-28T11:45:27;96481.38;;;1.72;59.00
62634;BME280;48704;50.534;6.442;2023-02-28T11:48:20;96484.59;;;1.46;60.79
62634;BME280;48704;50.534;6.442;2023-02-28T11:50:49;96485.41;;;1.39;62.43
62634;BME280;48704;50.534;6.442;2023-02-28T11:56:36;96488.97;;;0.86;62.16
62634;BME280;48704;50.534;6.442;2023-02-28T11:59:35;96492.84;;;1.39;61.78
62634;BME280;48704;50.534;6.442;2023-02-28T12:02:22;96487.03;;;0.51;64.49
62634;BME280;48704;50.534;6.442;2023-02-28T12:05:05;96489.34;;;1.13;62.99
62634;BME280;48704;50.534;6.442;2023-02-28T12:10:44;96485.09;;;2.14;59.15
62634;BME280;48704;50.534;6.442;2023-02-28T12:13:22;96478.63;;;2.45;58.17
62634;BME280;48704;50.534;6.442;2023-02-28T12:18:50;96484.41;;;1.95;58.38
62634;BME280;48704;50.534;6.442;2023-02-28T12:21:32;96481.06;;;1.38;59.07
62634;BME280;48704;50.534;6.442;2023-02-28T12:26:49;96478.44;;;3.56;56.93
62634;BME280;48704;50.534;6.442;2023-02-28T12:29:21;96470.56;;;4.19;54.14
62634;BME280;48704;50.534;6.442;2023-02-28T12:31:56;96473.97;;;4.57;53.22
62634;BME280;48704;50.534;6.442;2023-02-28T12:34:45;96477.25;;;4.75;49.70
62634;BME280;48704;50.534;6.442;2023-02-28T12:37:23;96480.03;;;4.18;51.00
62634;BME280;48704;50.534;6.442;2023-02-28T12:39:55;96471.03;;;3.83;52.00
62634;BME280;48704;50.534;6.442;2023-02-28T12:42:39;96470.88;;;2.85;54.60
62634;BME280;48704;50.534;6.442;2023-02-28T12:45:23;96459.09;;;4.24;50.41
62634;BME280;48704;50.534;6.442;2023-02-28T12:48:01;96461.69;;;3.74;50.43
62634;BME280;48704;50.534;6.442;2023-02-28T12:50:29;96460.91;;;5.74;48.53
62634;BME280;48704;50.534;6.442;2023-02-28T12:55:50;96450.72;;;4.31;47.45
62634;BME280;48704;50.534;6.442;2023-02-28T13:09:14;96453.94;;;5.66;45.75
62634;BME280;48704;50.534;6.442;2023-02-28T13:11:49;96430.69;;;5.00;47.65
62634;BME280;48704;50.534;6.442;2023-02-28T13:19:23;96438.38;;;5.56;46.00
62634;BME280;48704;50.534;6.442;2023-02-28T13:21:50;96438.72;;;6.17;43.52
62634;BME280;48704;50.534;6.442;2023-02-28T13:24:37;96430.06;;;4.66;46.29
62634;BME280;48704;50.534;6.442;2023-02-28T13:29:31;96430.31;;;4.25;46.19
62634;BME280;48704;50.534;6.442;2023-02-28T13:34:49;96430.28;;;4.79;47.16
62634;BME280;48704;50.534;6.442;2023-02-28T13:37:34;96427.00;;;5.70;44.80
62634;BME280;48704;50.534;6.442;2023-02-28T13:42:36;96417.53;;;5.08;44.72
62634;BME280;48704;50.534;6.442;2023-02-28T13:47:41;96419.22;;;6.04;42.55
62634;BME280;48704;50.534;6.442;2023-02-28T14:06:30;96420.44;;;5.84;42.44
62634;BME280;48704;50.534;6.442;2023-02-28T14:11:42;96420.31;;;5.91;42.55
62634;BME280;48704;50.534;6.442;2023-02-28T14:14:53;96417.75;;;6.68;41.66
62634;BME280;48704;50.534;6.442;2023-02-28T14:16:55;96420.63;;;5.73;43.45
62634;BME280;48704;50.534;6.442;2023-02-28T14:19:29;96426.94;;;6.82;41.14
62634;BME280;48704;50.534;6.442;2023-02-28T14:27:27;96414.75;;;5.51;43.09
62634;BME280;48704;50.534;6.442;2023-02-28T14:30:07;96416.38;;;5.88;43.12
62634;BME280;48704;50.534;6.442;2023-02-28T14:35:46;96407.88;;;5.79;42.84
62634;BME280;48704;50.534;6.442;2023-02-28T14:38:23;96409.78;;;5.43;44.78
62634;BME280;48704;50.534;6.442;2023-02-28T14:40:52;96401.91;;;6.00;42.90
62634;BME280;48704;50.534;6.442;2023-02-28T14:43:24;96400.88;;;5.55;43.75
62634;BME280;48704;50.534;6.442;2023-02-28T14:45:55;96394.41;;;5.42;42.58
62634;BME280;48704;50.534;6.442;2023-02-28T14:48:22;96400.75;;;6.18;42.68
62634;BME280;48704;50.534;6.442;2023-02-28T14:50:52;96406.09;;;6.93;41.14
62634;BME280;48704;50.534;6.442;2023-02-28T14:53:20;96392.81;;;7.75;39.70
62634;BME280;48704;50.534;6.442;2023-02-28T14:55:48;96397.63;;;6.16;41.40
62634;BME280;48704;50.534;6.442;2023-02-28T14:58:40;96386.56;;;7.71;38.92
62634;BME280;48704;50.534;6.442;2023-02-28T15:01:05;96398.47;;;7.84;39.34
62634;BME280;48704;50.534;6.442;2023-02-28T15:03:37;96392.16;;;6.97;39.39